Time;durP1;ratioP1;P1;durP2;ratioP2;P2;SDS_P1;SDS_P2;PMS_P1;PMS_P2;Temp;Humidity;BMP_temperature;BMP_pressure;BME280_temperature;BME280_humidity;BME280_pressure;Samples;Min_cycle;Max_cycle;Signal;HPM_P1;HPM_P2
2023/07/20 00:01:47;;;;;;;7.33;6.67;;;21.70;13.10;;;;;;4955412;29;20449;-63
2023/07/20 00:04:13;;;;;;;6.80;6.50;;;21.70;12.50;;;;;;4955061;28;20186;-64
2023/07/20 00:06:40;;;;;;;7.50;7.10;;;21.70;12.30;;;;;;4955260;29;20983;-64
2023/07/20 00:09:06;;;;;;;7.63;6.93;;;21.70;12.20;;;;;;4971118;28;20423;-64
2023/07/20 00:11:32;;;;;;;6.80;6.40;;;21.70;12.00;;;;;;4954924;28;20469;-64
2023/07/20 00:13:58;;;;;;;7.33;6.93;;;21.60;11.60;;;;;;4955018;28;20454;-65
2023/07/20 00:16:23;;;;;;;6.67;6.40;;;21.60;11.00;;;;;;4954856;29;20458;-64
2023/07/20 00:18:49;;;;;;;7.00;6.60;;;21.50;11.10;;;;;;4954938;29;20175;-64
2023/07/20 00:21:14;;;;;;;6.90;6.50;;;21.40;10.90;;;;;;4954831;28;20176;-64
2023/07/20 00:23:40;;;;;;;6.93;6.43;;;21.30;11.00;;;;;;4955066;29;20553;-64
2023/07/20 00:26:06;;;;;;;6.80;6.50;;;21.30;11.30;;;;;;4954886;29;20191;-63
2023/07/20 00:28:31;;;;;;;7.60;6.90;;;21.30;10.80;;;;;;4954708;28;20183;-64
2023/07/20 00:30:59;;;;;;;6.37;5.97;;;21.20;10.80;;;;;;4954894;29;20207;-64
2023/07/20 00:33:25;;;;;;;6.57;6.20;;;21.20;10.80;;;;;;4954638;29;20191;-63
2023/07/20 00:35:51;;;;;;;6.90;6.30;;;21.30;10.90;;;;;;4954588;29;20415;-64
2023/07/20 00:38:16;;;;;;;6.80;6.37;;;21.30;10.80;;;;;;4954436;29;20175;-64
2023/07/20 00:40:42;;;;;;;7.00;6.60;;;21.20;10.80;;;;;;4954450;28;20179;-64
2023/07/20 00:43:08;;;;;;;7.00;6.57;;;21.20;10.90;;;;;;4954758;28;20199;-64
2023/07/20 00:45:34;;;;;;;6.87;6.40;;;21.20;11.00;;;;;;4954436;28;20175;-64
2023/07/20 00:48:01;;;;;;;7.30;7.00;;;21.20;11.50;;;;;;4955618;28;20410;-64
2023/07/20 00:50:28;;;;;;;6.63;6.30;;;21.40;10.90;;;;;;4954488;28;20419;-64
2023/07/20 00:52:55;;;;;;;6.93;6.50;;;21.40;10.50;;;;;;4954422;28;20991;-64
2023/07/20 00:55:22;;;;;;;7.20;6.90;;;21.50;11.10;;;;;;4954043;28;20946;-64
2023/07/20 00:57:48;;;;;;;7.10;6.80;;;21.50;10.50;;;;;;4954144;29;20412;-64
2023/07/20 01:00:14;;;;;;;6.90;6.40;;;21.30;10.80;;;;;;4954102;28;20414;-63
2023/07/20 01:02:40;;;;;;;7.30;6.70;;;21.20;11.10;;;;;;4954302;29;20183;-64
2023/07/20 01:05:06;;;;;;;7.37;6.97;;;21.10;11.40;;;;;;4953835;28;20423;-64
2023/07/20 01:07:55;;;;;;;6.60;6.23;;;21.00;11.50;;;;;;4954216;29;20187;-64
2023/07/20 01:10:52;;;;;;;6.60;6.30;;;21.10;11.50;;;;;;4954107;29;20454;-64
2023/07/20 01:13:19;;;;;;;6.87;6.53;;;21.10;11.40;;;;;;4953953;28;20427;-58
2023/07/20 01:15:57;;;;;;;7.27;6.73;;;21.10;11.50;;;;;;4954125;29;20772;-59
2023/07/20 01:18:22;;;;;;;7.63;7.13;;;21.10;11.50;;;;;;4953754;29;20639;-59
2023/07/20 01:20:48;;;;;;;7.20;6.90;;;21.10;11.60;;;;;;4955277;29;20517;-59
2023/07/20 01:23:35;;;;;;;6.60;6.30;;;21.10;11.70;;;;;;4953695;29;20179;-58
2023/07/20 01:26:29;;;;;;;7.27;6.90;;;21.00;11.70;;;;;;4969844;28;20426;-59
2023/07/20 01:29:27;;;;;;;7.10;6.60;;;20.90;12.00;;;;;;4969597;28;20782;-58
2023/07/20 01:31:56;;;;;;;7.23;6.73;;;20.90;12.20;;;;;;4953619;28;20473;-58
2023/07/20 01:34:24;;;;;;;7.00;6.70;;;20.70;12.60;;;;;;4953508;28;20418;-58
2023/07/20 01:36:52;;;;;;;7.57;7.07;;;20.60;12.90;;;;;;4953554;28;20506;-59
2023/07/20 01:39:19;;;;;;;6.77;6.47;;;20.50;13.00;;;;;;4954570;28;20805;-58
2023/07/20 01:41:45;;;;;;;6.47;6.17;;;20.60;14.00;;;;;;4953640;28;20545;-59
2023/07/20 01:44:12;;;;;;;7.20;6.80;;;20.60;13.30;;;;;;4953257;29;20458;-59
2023/07/20 01:46:38;;;;;;;7.67;7.27;;;20.50;13.40;;;;;;4954745;28;20514;-59
2023/07/20 01:49:03;;;;;;;6.30;5.80;;;20.50;13.40;;;;;;4953138;29;20514;-64
2023/07/20 01:51:29;;;;;;;6.77;6.57;;;20.50;13.40;;;;;;4953020;28;20336;-64
2023/07/20 01:53:55;;;;;;;7.33;6.93;;;20.50;13.40;;;;;;4952977;28;20179;-64
2023/07/20 01:56:20;;;;;;;6.60;6.20;;;20.50;13.40;;;;;;4953084;29;20187;-64
2023/07/20 01:58:46;;;;;;;7.43;7.03;;;20.50;13.80;;;;;;4969149;28;20656;-64
2023/07/20 02:01:11;;;;;;;7.63;7.23;;;20.50;13.60;;;;;;4953129;29;20179;-64
2023/07/20 02:03:37;;;;;;;7.43;7.03;;;20.40;13.80;;;;;;4953181;28;20175;-64
2023/07/20 02:06:03;;;;;;;7.90;7.50;;;20.30;14.00;;;;;;4953048;29;20584;-64
2023/07/20 02:08:28;;;;;;;7.40;7.10;;;20.30;14.00;;;;;;4952819;28;20186;-63
2023/07/20 02:10:54;;;;;;;7.33;7.03;;;20.30;14.30;;;;;;4952867;28;20611;-65
2023/07/20 02:13:20;;;;;;;7.77;7.37;;;20.20;14.40;;;;;;4952816;28;20646;-65
2023/07/20 02:15:47;;;;;;;8.07;7.57;;;20.20;14.50;;;;;;4952903;28;20219;-65
2023/07/20 02:18:12;;;;;;;8.40;7.80;;;20.20;14.60;;;;;;4968839;28;20670;-64
2023/07/20 02:20:40;;;;;;;7.10;6.80;;;20.10;14.50;;;;;;4952944;28;20510;-63
2023/07/20 02:23:05;;;;;;;8.10;7.70;;;20.10;14.60;;;;;;4952869;29;20186;-64
2023/07/20 02:25:31;;;;;;;7.90;7.50;;;20.10;14.90;;;;;;4952599;29;20419;-64
2023/07/20 02:27:58;;;;;;;7.83;7.50;;;20.10;15.00;;;;;;4952714;29;20202;-64
2023/07/20 02:30:24;;;;;;;7.20;6.90;;;20.00;15.00;;;;;;4952521;28;20171;-64
2023/07/20 02:32:49;;;;;;;7.40;7.10;;;20.00;15.00;;;;;;4952705;29;21082;-64
2023/07/20 02:35:16;;;;;;;8.27;7.70;;;20.00;15.10;;;;;;4968629;28;20505;-64
2023/07/20 02:37:42;;;;;;;7.40;7.10;;;19.90;15.20;;;;;;4952680;29;20223;-64
2023/07/20 02:40:08;;;;;;;8.03;7.53;;;19.80;15.30;;;;;;4952470;29;20427;-64
2023/07/20 02:42:35;;;;;;;8.30;7.60;;;19.80;15.50;;;;;;4952693;29;20438;-64
2023/07/20 02:45:02;;;;;;;7.63;7.23;;;19.80;15.80;;;;;;4952279;29;20971;-64
2023/07/20 02:47:29;;;;;;;7.13;6.83;;;19.70;15.80;;;;;;4952497;29;20411;-64
2023/07/20 02:49:54;;;;;;;8.20;7.70;;;19.60;15.90;;;;;;4952172;28;20490;-64
2023/07/20 02:52:20;;;;;;;7.67;7.30;;;19.60;16.10;;;;;;4952148;28;20482;-59
2023/07/20 02:54:46;;;;;;;8.70;8.00;;;19.60;16.30;;;;;;4952177;29;20199;-59
2023/07/20 02:57:11;;;;;;;7.63;7.13;;;19.50;16.30;;;;;;4968273;28;20175;-59
2023/07/20 02:59:37;;;;;;;7.60;7.20;;;19.50;16.50;;;;;;4952043;28;20230;-64
2023/07/20 03:02:03;;;;;;;8.53;7.80;;;19.50;16.50;;;;;;4952269;28;20229;-64
2023/07/20 03:04:28;;;;;;;8.60;8.20;;;19.50;16.80;;;;;;4968083;28;20595;-59
2023/07/20 03:06:54;;;;;;;8.40;7.90;;;19.40;17.00;;;;;;4952295;28;20183;-59
2023/07/20 03:09:20;;;;;;;8.47;8.07;;;19.40;17.00;;;;;;4951835;28;20238;-58
2023/07/20 03:11:45;;;;;;;7.87;7.57;;;19.40;17.00;;;;;;4951868;28;20555;-59
2023/07/20 03:14:11;;;;;;;8.40;7.83;;;19.40;17.00;;;;;;4951861;28;20190;-57
2023/07/20 03:16:37;;;;;;;9.10;7.93;;;19.40;17.00;;;;;;4952092;29;20178;-58
2023/07/20 03:19:03;;;;;;;8.20;7.80;;;19.40;16.90;;;;;;4951911;29;20206;-59
2023/07/20 03:21:29;;;;;;;8.23;7.83;;;19.40;17.00;;;;;;4952243;28;20359;-58
2023/07/20 03:23:55;;;;;;;7.90;7.53;;;19.40;17.00;;;;;;4952024;28;20415;-58
2023/07/20 03:26:21;;;;;;;7.90;7.40;;;19.50;17.00;;;;;;4951864;28;20415;-57
2023/07/20 03:28:47;;;;;;;8.37;7.87;;;19.50;17.00;;;;;;4951755;28;20415;-59
2023/07/20 03:31:12;;;;;;;7.93;7.63;;;19.40;17.00;;;;;;4951660;29;20210;-58
2023/07/20 03:33:38;;;;;;;7.43;7.13;;;19.40;17.00;;;;;;4951941;29;20175;-63
2023/07/20 03:36:05;;;;;;;6.90;6.57;;;19.40;17.20;;;;;;4959856;28;20182;-64
2023/07/20 03:38:30;;;;;;;8.00;7.60;;;19.40;17.20;;;;;;4971242;28;20229;-63
2023/07/20 03:41:00;;;;;;;7.57;7.17;;;19.30;17.10;;;;;;4970927;28;20414;-63
2023/07/20 03:43:27;;;;;;;8.30;7.70;;;19.30;17.20;;;;;;4970896;28;20522;-64
2023/07/20 03:45:54;;;;;;;7.03;6.63;;;19.30;17.70;;;;;;4972321;28;20410;-64
2023/07/20 03:48:21;;;;;;;7.77;7.10;;;19.30;17.60;;;;;;4970537;28;20414;-64
2023/07/20 03:50:49;;;;;;;8.47;7.97;;;19.20;17.50;;;;;;4971013;28;20442;-65
2023/07/20 03:53:16;;;;;;;7.40;7.00;;;19.20;17.80;;;;;;4971104;28;20418;-65
2023/07/20 03:55:46;;;;;;;7.87;7.27;;;19.20;17.70;;;;;;4972072;28;20460;-64
2023/07/20 03:58:13;;;;;;;7.83;7.43;;;19.20;17.70;;;;;;4970885;28;20426;-63
2023/07/20 04:00:39;;;;;;;7.60;7.30;;;19.30;17.90;;;;;;4970770;28;20441;-64
2023/07/20 04:03:05;;;;;;;8.37;7.87;;;19.20;17.90;;;;;;4970881;28;20930;-64
2023/07/20 04:05:31;;;;;;;8.03;7.53;;;19.20;17.90;;;;;;4970666;28;20461;-65
2023/07/20 04:07:56;;;;;;;7.27;6.87;;;19.20;17.90;;;;;;4970643;28;20429;-65
2023/07/20 04:10:22;;;;;;;7.30;7.00;;;19.10;18.00;;;;;;4971892;28;20198;-65
2023/07/20 04:12:48;;;;;;;8.47;8.17;;;19.10;18.30;;;;;;4970866;28;20414;-64
2023/07/20 04:15:14;;;;;;;8.17;7.60;;;19.10;18.60;;;;;;4971564;28;20175;-65
2023/07/20 04:17:40;;;;;;;7.80;7.30;;;19.00;18.70;;;;;;4975819;28;20237;-64
2023/07/20 04:20:07;;;;;;;7.40;7.00;;;19.00;18.80;;;;;;4974612;28;20501;-64
2023/07/20 04:22:33;;;;;;;7.37;6.73;;;19.00;18.90;;;;;;4974757;28;20421;-64
2023/07/20 04:24:58;;;;;;;8.60;8.20;;;19.00;18.70;;;;;;4974623;28;20422;-64
2023/07/20 04:27:24;;;;;;;7.60;7.20;;;19.10;18.80;;;;;;4975478;28;20190;-64
2023/07/20 04:29:50;;;;;;;7.93;7.50;;;19.00;18.70;;;;;;4974172;28;20186;-65
2023/07/20 04:32:17;;;;;;;7.83;7.43;;;19.10;18.70;;;;;;4975608;28;20207;-64
2023/07/20 04:34:43;;;;;;;8.50;7.90;;;19.10;18.70;;;;;;4974639;28;20539;-64
2023/07/20 04:37:08;;;;;;;7.37;7.07;;;19.10;18.70;;;;;;4974488;28;20429;-63
2023/07/20 04:39:34;;;;;;;8.27;7.77;;;19.20;19.10;;;;;;4974333;28;20368;-64
2023/07/20 04:42:00;;;;;;;8.20;7.80;;;19.20;18.60;;;;;;4974577;28;20214;-64
2023/07/20 04:44:25;;;;;;;7.90;7.50;;;19.20;18.60;;;;;;4974202;28;20194;-63
2023/07/20 04:46:51;;;;;;;8.60;8.20;;;19.30;18.70;;;;;;4974498;28;20269;-64
2023/07/20 04:49:17;;;;;;;8.37;7.80;;;19.30;18.40;;;;;;4974144;28;20273;-65
2023/07/20 04:51:42;;;;;;;9.07;8.47;;;19.30;18.60;;;;;;4974375;28;20206;-64
2023/07/20 04:54:08;;;;;;;8.20;7.80;;;19.40;18.60;;;;;;4975183;28;20569;-64
2023/07/20 04:56:33;;;;;;;7.77;7.37;;;19.40;18.50;;;;;;4990291;28;20314;-64
2023/07/20 04:58:59;;;;;;;8.53;8.17;;;19.40;18.40;;;;;;4950230;28;20258;-63
2023/07/20 05:01:26;;;;;;;8.03;7.50;;;19.40;18.40;;;;;;4935303;29;20176;-65
2023/07/20 05:03:52;;;;;;;8.33;7.77;;;19.40;18.30;;;;;;4934970;29;20452;-64
2023/07/20 05:06:18;;;;;;;8.87;8.27;;;19.50;18.20;;;;;;4934905;29;20788;-64
2023/07/20 05:08:44;;;;;;;9.10;8.70;;;19.50;18.20;;;;;;4934959;29;20565;-64
2023/07/20 05:11:11;;;;;;;9.20;8.60;;;19.60;17.90;;;;;;4939825;28;20549;-65
2023/07/20 05:13:36;;;;;;;9.30;8.90;;;19.70;18.00;;;;;;4935968;29;20503;-64
2023/07/20 05:16:02;;;;;;;9.03;8.63;;;19.70;17.70;;;;;;4954177;28;20833;-64
2023/07/20 05:18:28;;;;;;;9.10;8.50;;;19.70;17.80;;;;;;4942701;29;20422;-64
2023/07/20 05:20:55;;;;;;;9.53;9.03;;;19.70;17.80;;;;;;4966264;28;20185;-64
2023/07/20 05:23:20;;;;;;;9.80;9.20;;;19.70;17.90;;;;;;4958790;28;20674;-64
2023/07/20 05:25:47;;;;;;;9.30;8.80;;;19.80;17.90;;;;;;4949811;28;20415;-64
2023/07/20 05:28:12;;;;;;;8.00;7.60;;;19.90;17.90;;;;;;4968573;28;20506;-65
2023/07/20 05:30:39;;;;;;;8.47;8.07;;;20.00;17.40;;;;;;4969812;28;20509;-65
2023/07/20 05:33:05;;;;;;;7.87;7.57;;;20.10;17.50;;;;;;4969802;28;20219;-60
2023/07/20 05:35:31;;;;;;;9.13;8.53;;;20.10;17.50;;;;;;4969343;28;20532;-59
2023/07/20 05:37:56;;;;;;;8.93;8.53;;;20.10;17.50;;;;;;4970076;28;20179;-61
2023/07/20 05:40:22;;;;;;;10.60;10.00;;;20.10;17.50;;;;;;4969960;28;20175;-58
2023/07/20 05:42:51;;;;;;;9.53;8.93;;;20.20;17.50;;;;;;4953394;28;20251;-59
2023/07/20 05:45:17;;;;;;;9.43;8.77;;;20.20;17.50;;;;;;4969044;28;20214;-59
2023/07/20 05:47:43;;;;;;;9.37;8.90;;;20.30;17.70;;;;;;4968887;28;20427;-59
2023/07/20 05:50:10;;;;;;;9.73;9.03;;;20.30;17.50;;;;;;4959226;28;20471;-59
2023/07/20 05:52:38;;;;;;;8.67;8.27;;;20.20;17.50;;;;;;4951092;28;20203;-59
2023/07/20 05:55:04;;;;;;;9.60;9.00;;;20.30;17.50;;;;;;4966647;28;20408;-58
2023/07/20 05:57:30;;;;;;;9.40;8.60;;;20.30;17.50;;;;;;4951660;29;20481;-59
2023/07/20 05:59:55;;;;;;;9.27;8.50;;;20.40;17.60;;;;;;4950546;29;20913;-59
2023/07/20 06:02:21;;;;;;;9.10;8.60;;;20.40;17.40;;;;;;4950844;28;20279;-59
2023/07/20 06:04:47;;;;;;;8.37;7.97;;;20.40;17.20;;;;;;4950303;28;20191;-65
2023/07/20 06:07:12;;;;;;;8.80;8.30;;;20.50;17.30;;;;;;4950148;28;20672;-65
2023/07/20 06:09:38;;;;;;;8.30;8.00;;;20.50;17.40;;;;;;4981076;28;20206;-65
2023/07/20 06:12:04;;;;;;;9.03;8.33;;;20.50;17.40;;;;;;4987577;28;20217;-65
2023/07/20 06:14:30;;;;;;;8.60;8.00;;;20.50;17.50;;;;;;4971271;28;20182;-65
2023/07/20 06:16:56;;;;;;;8.90;8.37;;;20.50;17.60;;;;;;4987186;28;20426;-65
2023/07/20 06:19:22;;;;;;;9.20;8.70;;;20.50;17.70;;;;;;4970705;28;20437;-64
2023/07/20 06:21:49;;;;;;;10.07;9.47;;;20.50;17.70;;;;;;4966491;28;20198;-62
2023/07/20 06:24:15;;;;;;;8.40;8.00;;;20.50;17.60;;;;;;4950006;28;20414;-66
2023/07/20 06:26:41;;;;;;;8.93;8.53;;;20.60;17.80;;;;;;4969407;28;20481;-65
2023/07/20 06:29:07;;;;;;;9.03;8.53;;;20.60;17.80;;;;;;4969153;28;20419;-66
2023/07/20 06:31:34;;;;;;;9.00;8.50;;;20.50;18.30;;;;;;4969289;28;20211;-61
2023/07/20 06:34:00;;;;;;;8.70;8.30;;;20.50;18.10;;;;;;4969329;28;20411;-62
2023/07/20 06:36:26;;;;;;;9.00;8.60;;;20.60;18.40;;;;;;4969314;28;20470;-62
2023/07/20 06:38:52;;;;;;;9.07;8.67;;;20.60;17.80;;;;;;4968871;28;20419;-61
2023/07/20 06:41:18;;;;;;;11.63;10.83;;;20.50;17.90;;;;;;4969226;28;20183;-63
2023/07/20 06:43:44;;;;;;;8.07;7.57;;;20.40;18.30;;;;;;4969356;28;20411;-62
2023/07/20 06:46:10;;;;;;;8.70;8.20;;;20.50;18.40;;;;;;4969120;28;20971;-62
2023/07/20 06:48:36;;;;;;;7.70;7.30;;;20.60;18.20;;;;;;4969096;28;20415;-63
2023/07/20 06:51:02;;;;;;;10.63;9.30;;;20.70;18.10;;;;;;4969111;28;20680;-62
2023/07/20 06:53:28;;;;;;;9.40;8.80;;;20.90;18.00;;;;;;4969062;28;20202;-63
2023/07/20 06:55:56;;;;;;;8.20;7.80;;;20.80;17.90;;;;;;4969122;28;20415;-61
2023/07/20 06:58:22;;;;;;;9.40;8.90;;;20.90;17.80;;;;;;4968799;28;20414;-61
2023/07/20 07:00:48;;;;;;;9.63;8.60;;;20.90;17.60;;;;;;4965531;28;20879;-61
2023/07/20 07:03:14;;;;;;;9.03;8.40;;;20.90;17.60;;;;;;4949654;29;20547;-60
2023/07/20 07:05:40;;;;;;;8.30;7.80;;;21.10;17.30;;;;;;4933807;29;20184;-60
2023/07/20 07:08:06;;;;;;;8.80;8.00;;;21.10;17.20;;;;;;4933418;29;20438;-60
2023/07/20 07:10:32;;;;;;;8.33;7.83;;;21.20;17.30;;;;;;4935005;29;20187;-60
2023/07/20 07:12:58;;;;;;;8.10;7.70;;;21.20;17.10;;;;;;4933610;29;20475;-61
2023/07/20 07:15:24;;;;;;;8.57;8.13;;;21.30;16.70;;;;;;4934753;29;20504;-61
2023/07/20 07:17:50;;;;;;;9.10;8.27;;;21.20;17.10;;;;;;4933573;29;20733;-61
2023/07/20 07:20:16;;;;;;;8.33;7.93;;;21.20;16.70;;;;;;4933570;29;20558;-61
2023/07/20 07:22:43;;;;;;;10.23;9.53;;;21.20;17.10;;;;;;4933566;29;20415;-60
2023/07/20 07:25:10;;;;;;;9.23;8.60;;;21.20;17.10;;;;;;4933466;29;20230;-60
2023/07/20 07:27:35;;;;;;;8.77;8.37;;;21.20;17.00;;;;;;4933414;29;20424;-60
2023/07/20 07:30:02;;;;;;;9.20;8.70;;;21.20;16.80;;;;;;4933410;29;20416;-62
2023/07/20 07:32:28;;;;;;;8.60;8.20;;;21.30;16.50;;;;;;4933567;29;20298;-64
2023/07/20 07:34:54;;;;;;;8.37;7.90;;;21.20;16.80;;;;;;4943782;28;20499;-61
2023/07/20 07:37:19;;;;;;;25.13;23.03;;;21.30;16.60;;;;;;4950730;28;20179;-61
2023/07/20 07:39:45;;;;;;;8.77;8.27;;;21.50;16.20;;;;;;4950879;28;20230;-61
2023/07/20 07:42:12;;;;;;;8.80;7.83;;;21.70;16.10;;;;;;4951012;28;20580;-59
2023/07/20 07:44:38;;;;;;;8.50;7.80;;;21.70;15.40;;;;;;4950883;29;20207;-61
2023/07/20 07:47:04;;;;;;;8.63;8.13;;;21.70;15.50;;;;;;4951124;29;20462;-61
2023/07/20 07:49:31;;;;;;;8.20;7.80;;;21.70;15.50;;;;;;4968928;28;20180;-62
2023/07/20 07:51:57;;;;;;;8.20;7.80;;;21.80;15.20;;;;;;4955539;29;21001;-61
2023/07/20 07:54:22;;;;;;;8.70;7.97;;;21.90;14.90;;;;;;4955916;28;20502;-61
2023/07/20 07:56:51;;;;;;;9.10;8.47;;;21.90;14.80;;;;;;4956196;29;20180;-61
2023/07/20 07:59:17;;;;;;;8.70;8.30;;;21.80;15.10;;;;;;4955922;29;20171;-61
2023/07/20 08:01:42;;;;;;;7.83;7.50;;;21.90;14.60;;;;;;4972061;28;20982;-61
2023/07/20 08:04:08;;;;;;;9.00;8.50;;;22.00;14.70;;;;;;4955933;28;20231;-61
2023/07/20 08:06:34;;;;;;;8.50;8.00;;;22.10;14.60;;;;;;4956026;28;20176;-61
2023/07/20 08:09:00;;;;;;;8.50;8.10;;;22.20;13.30;;;;;;4955838;29;20280;-61
2023/07/20 08:11:26;;;;;;;9.23;8.73;;;22.20;13.60;;;;;;4955734;29;20246;-61
2023/07/20 08:13:51;;;;;;;8.43;8.00;;;22.30;12.80;;;;;;4972144;28;20944;-61
2023/07/20 08:16:17;;;;;;;8.60;8.20;;;22.20;13.40;;;;;;4971706;28;20427;-61
2023/07/20 08:18:44;;;;;;;9.00;8.50;;;22.20;13.40;;;;;;4971658;28;20178;-61
2023/07/20 08:21:09;;;;;;;9.43;8.20;;;22.20;13.90;;;;;;4955989;29;20179;-61
2023/07/20 08:23:35;;;;;;;9.17;8.70;;;22.30;12.40;;;;;;4971750;28;20775;-62
2023/07/20 08:26:01;;;;;;;8.40;7.83;;;22.40;12.90;;;;;;4955742;28;20183;-61
2023/07/20 08:28:27;;;;;;;8.20;7.80;;;22.50;12.80;;;;;;4955474;29;20175;-61
2023/07/20 08:30:53;;;;;;;8.40;7.73;;;22.60;12.80;;;;;;4955151;29;20704;-62
2023/07/20 08:33:19;;;;;;;8.43;7.87;;;22.60;12.50;;;;;;4955339;29;20415;-62
2023/07/20 08:35:46;;;;;;;7.73;7.20;;;22.60;12.90;;;;;;4955372;29;20183;-62
2023/07/20 08:38:12;;;;;;;8.50;8.10;;;22.60;13.10;;;;;;4955117;28;20451;-62
2023/07/20 08:40:46;;;;;;;8.37;7.70;;;22.50;13.30;;;;;;4955648;29;20783;-61
2023/07/20 08:43:13;;;;;;;7.77;7.47;;;22.50;13.10;;;;;;4955025;28;20423;-62
2023/07/20 08:45:40;;;;;;;7.87;7.53;;;22.40;12.70;;;;;;4962565;28;20935;-61
2023/07/20 08:48:07;;;;;;;8.33;7.87;;;22.50;11.60;;;;;;4972679;28;20444;-61
2023/07/20 08:50:34;;;;;;;7.67;7.37;;;22.60;11.70;;;;;;4972543;28;20601;-60
2023/07/20 08:53:02;;;;;;;8.50;8.10;;;22.70;11.90;;;;;;4972665;28;20462;-60
2023/07/20 08:55:28;;;;;;;9.00;8.30;;;22.80;11.70;;;;;;4972742;28;20418;-60
2023/07/20 08:57:55;;;;;;;7.87;7.57;;;22.90;11.00;;;;;;4972567;28;20442;-59
2023/07/20 09:00:22;;;;;;;8.10;7.70;;;22.90;10.60;;;;;;4972698;28;20858;-59
2023/07/20 09:02:52;;;;;;;8.00;7.70;;;23.00;10.30;;;;;;4973507;28;20835;-59
2023/07/20 09:05:19;;;;;;;8.47;8.17;;;23.10;10.80;;;;;;4973995;28;20418;-59
2023/07/20 09:07:45;;;;;;;7.90;7.50;;;23.10;10.10;;;;;;4973989;28;20779;-59
2023/07/20 09:10:11;;;;;;;8.30;8.00;;;23.10;10.20;;;;;;4973762;28;20452;-59
2023/07/20 09:12:38;;;;;;;8.23;7.80;;;23.10;10.30;;;;;;4974020;28;20489;-62
2023/07/20 09:15:05;;;;;;;7.67;7.27;;;23.00;10.30;;;;;;4989990;28;20418;-59
2023/07/20 09:17:30;;;;;;;8.40;7.90;;;22.90;10.50;;;;;;4973921;28;20414;-59
2023/07/20 09:19:56;;;;;;;7.43;7.13;;;22.80;10.60;;;;;;4973786;28;20414;-62
2023/07/20 09:22:22;;;;;;;7.30;7.00;;;22.80;10.90;;;;;;4973847;28;20433;-60
2023/07/20 09:24:48;;;;;;;6.63;6.33;;;22.90;10.80;;;;;;4973874;28;20182;-60
2023/07/20 09:27:13;;;;;;;7.70;7.33;;;23.00;9.60;;;;;;4973782;28;20668;-60
2023/07/20 09:29:48;;;;;;;7.67;7.10;;;23.00;9.70;;;;;;4973578;28;20460;-60
2023/07/20 09:32:19;;;;;;;7.93;7.50;;;23.00;9.60;;;;;;4973709;28;20229;-60
2023/07/20 09:34:44;;;;;;;8.23;7.50;;;22.90;9.70;;;;;;4973781;28;20476;-60
2023/07/20 09:37:10;;;;;;;8.10;7.70;;;22.90;10.50;;;;;;4973613;28;20410;-60
2023/07/20 09:39:46;;;;;;;7.77;7.27;;;22.90;10.60;;;;;;4973385;28;20174;-60
2023/07/20 09:42:15;;;;;;;7.40;7.10;;;22.90;10.00;;;;;;4973653;28;20185;-60
2023/07/20 09:44:43;;;;;;;7.97;7.30;;;22.90;9.30;;;;;;4973461;28;20425;-60
2023/07/20 09:47:10;;;;;;;7.60;7.10;;;22.90;9.10;;;;;;4973325;28;20418;-60
2023/07/20 09:49:42;;;;;;;8.03;7.53;;;23.00;9.00;;;;;;4973227;28;20413;-60
2023/07/20 09:52:12;;;;;;;7.20;6.90;;;23.10;9.40;;;;;;4973023;28;20461;-59
2023/07/20 09:54:39;;;;;;;7.07;6.77;;;23.20;8.30;;;;;;4973314;28;20782;-60
2023/07/20 09:57:08;;;;;;;7.47;7.17;;;23.30;7.40;;;;;;4973223;28;20418;-60
2023/07/20 09:59:34;;;;;;;7.60;7.20;;;23.40;7.50;;;;;;4972930;28;20422;-60
2023/07/20 10:02:04;;;;;;;7.00;6.70;;;23.50;7.40;;;;;;4973124;28;20428;-61
2023/07/20 10:04:31;;;;;;;6.90;6.60;;;23.70;8.60;;;;;;4973061;28;20481;-60
2023/07/20 10:07:00;;;;;;;7.53;7.20;;;23.70;7.50;;;;;;4973089;28;20505;-60
2023/07/20 10:09:27;;;;;;;8.33;7.93;;;23.80;7.10;;;;;;4972736;28;20425;-60
2023/07/20 10:11:53;;;;;;;7.67;7.37;;;24.00;6.90;;;;;;4972831;28;20943;-60
2023/07/20 10:14:23;;;;;;;7.57;7.17;;;24.10;7.00;;;;;;4972406;28;20414;-60
2023/07/20 10:16:57;;;;;;;8.07;7.57;;;24.20;6.80;;;;;;4972994;28;20966;-60
2023/07/20 10:19:39;;;;;;;7.47;7.07;;;24.30;5.90;;;;;;4972556;28;20420;-59
2023/07/20 10:22:15;;;;;;;8.00;7.60;;;24.20;5.50;;;;;;4972807;28;20418;-59
2023/07/20 10:24:44;;;;;;;7.83;7.33;;;24.10;5.10;;;;;;4972724;28;20933;-59
2023/07/20 10:27:10;;;;;;;7.63;7.33;;;24.00;5.60;;;;;;4972791;28;20480;-60
2023/07/20 10:29:37;;;;;;;6.90;6.50;;;23.80;5.50;;;;;;4972429;28;20831;-59
2023/07/20 10:32:03;;;;;;;7.33;7.00;;;23.80;6.80;;;;;;4973739;28;20249;-59
2023/07/20 10:34:29;;;;;;;7.43;7.10;;;23.90;5.40;;;;;;4972548;28;20982;-59
2023/07/20 10:36:55;;;;;;;7.00;6.70;;;24.00;5.40;;;;;;4972495;28;20506;-59
2023/07/20 10:39:24;;;;;;;7.00;6.60;;;24.20;5.30;;;;;;4972215;28;20230;-60
2023/07/20 10:41:50;;;;;;;6.37;6.17;;;24.50;4.90;;;;;;4988780;28;20670;-59
2023/07/20 10:44:19;;;;;;;7.10;6.80;;;24.60;4.40;;;;;;4972427;28;20429;-59
2023/07/20 10:46:48;;;;;;;7.20;7.00;;;24.80;4.20;;;;;;4972320;28;20182;-59
2023/07/20 10:49:15;;;;;;;7.83;7.53;;;25.00;5.00;;;;;;4972084;28;20949;-59
2023/07/20 10:51:41;;;;;;;7.57;7.07;;;24.90;4.50;;;;;;4972234;28;20496;-60
2023/07/20 10:54:17;;;;;;;7.60;7.13;;;24.90;3.20;;;;;;4988233;28;20418;-59
2023/07/20 10:56:44;;;;;;;7.10;6.80;;;24.90;3.90;;;;;;4988428;28;20468;-63
2023/07/20 10:59:20;;;;;;;6.70;6.40;;;24.80;3.30;;;;;;4971988;28;20426;-64
2023/07/20 11:01:49;;;;;;;7.20;6.90;;;24.80;3.00;;;;;;4972230;28;20430;-63
2023/07/20 11:04:15;;;;;;;6.63;6.33;;;24.80;2.90;;;;;;4971637;28;20422;-61
2023/07/20 11:06:44;;;;;;;7.47;7.17;;;24.80;3.20;;;;;;4972214;28;20861;-62
2023/07/20 11:09:14;;;;;;;7.20;6.80;;;24.80;2.80;;;;;;4971740;28;20444;-63
2023/07/20 11:11:48;;;;;;;6.27;5.87;;;24.80;2.80;;;;;;4972084;28;20481;-63
2023/07/20 11:14:24;;;;;;;7.00;6.70;;;24.70;2.80;;;;;;4962773;28;20778;-62
2023/07/20 11:16:52;;;;;;;6.33;6.13;;;24.60;2.70;;;;;;4949792;29;20470;-62
2023/07/20 11:19:25;;;;;;;6.60;6.40;;;24.60;2.70;;;;;;4965150;28;20424;-62
2023/07/20 11:21:58;;;;;;;6.87;6.47;;;24.70;2.70;;;;;;4933531;29;20518;-63
2023/07/20 11:24:24;;;;;;;6.63;6.43;;;24.80;2.70;;;;;;4933281;28;20445;-62
2023/07/20 11:26:51;;;;;;;6.40;6.20;;;24.90;2.30;;;;;;4937017;29;20912;-62
2023/07/20 11:29:18;;;;;;;6.50;6.20;;;24.80;2.20;;;;;;4938413;29;20431;-62
2023/07/20 11:31:45;;;;;;;7.40;7.10;;;24.80;2.20;;;;;;4937325;29;20554;-62
2023/07/20 11:34:20;;;;;;;6.90;6.60;;;24.80;2.50;;;;;;4937392;29;20419;-62
2023/07/20 11:36:50;;;;;;;6.70;6.40;;;24.70;2.50;;;;;;4937401;29;20442;-62
2023/07/20 11:39:20;;;;;;;6.67;6.37;;;24.70;2.40;;;;;;4937027;29;20416;-61
2023/07/20 11:41:54;;;;;;;6.57;6.30;;;24.50;2.70;;;;;;4937324;29;20786;-61
2023/07/20 11:44:28;;;;;;;7.30;7.00;;;24.50;3.00;;;;;;4937445;29;20419;-61
2023/07/20 11:47:05;;;;;;;7.30;7.00;;;24.40;3.30;;;;;;4937220;29;20423;-62
2023/07/20 11:49:39;;;;;;;6.70;6.40;;;24.50;2.70;;;;;;4936852;29;20466;-62
2023/07/20 11:52:07;;;;;;;7.17;6.87;;;24.40;2.60;;;;;;4937067;29;20471;-62
2023/07/20 11:54:37;;;;;;;7.33;6.93;;;24.40;3.20;;;;;;4937000;29;20470;-61
2023/07/20 11:57:05;;;;;;;7.30;6.70;;;24.40;3.20;;;;;;4936999;29;21036;-62
2023/07/20 11:59:31;;;;;;;7.53;7.17;;;24.50;3.90;;;;;;4936651;29;20420;-61
2023/07/20 12:01:58;;;;;;;6.90;6.60;;;24.50;3.00;;;;;;4936861;29;20893;-62
2023/07/20 12:04:23;;;;;;;7.67;7.27;;;24.50;1.90;;;;;;4936843;29;20514;-61
2023/07/20 12:06:49;;;;;;;7.73;7.33;;;24.50;2.60;;;;;;4936772;29;20489;-61
2023/07/20 12:09:17;;;;;;;7.13;6.80;;;24.40;1.20;;;;;;4936522;29;20180;-61
2023/07/20 12:11:45;;;;;;;7.03;6.77;;;24.50;1.70;;;;;;4936788;29;20219;-61
2023/07/20 12:14:11;;;;;;;6.20;6.00;;;24.40;1.30;;;;;;4936855;29;20423;-61
2023/07/20 12:16:40;;;;;;;6.73;6.37;;;24.40;1.00;;;;;;4936625;29;20424;-61
2023/07/20 12:19:10;;;;;;;6.40;6.10;;;24.40;1.00;;;;;;4936481;29;20420;-61
2023/07/20 12:21:37;;;;;;;6.80;6.40;;;24.50;1.00;;;;;;4936569;29;20427;-61
2023/07/20 12:24:04;;;;;;;6.90;6.50;;;24.60;1.60;;;;;;4936554;29;20455;-61
2023/07/20 12:26:30;;;;;;;6.50;6.17;;;24.60;1.00;;;;;;4936452;29;21199;-61
2023/07/20 12:28:56;;;;;;;6.10;5.80;;;24.60;1.20;;;;;;4941173;28;20430;-61
2023/07/20 12:31:24;;;;;;;7.30;6.80;;;24.70;1.60;;;;;;4973864;28;20509;-61
2023/07/20 12:33:50;;;;;;;7.00;6.60;;;24.70;1.90;;;;;;4973504;28;20187;-61
2023/07/20 12:36:16;;;;;;;6.83;6.53;;;24.70;2.00;;;;;;4974318;28;20418;-61
2023/07/20 12:38:42;;;;;;;7.37;7.07;;;24.70;2.10;;;;;;4974322;28;20757;-61
2023/07/20 12:41:12;;;;;;;6.60;6.40;;;24.70;1.90;;;;;;4974670;28;20454;-61
2023/07/20 12:43:38;;;;;;;7.30;7.00;;;24.70;1.70;;;;;;4974652;28;20596;-61
2023/07/20 12:46:04;;;;;;;6.57;6.37;;;24.60;2.30;;;;;;4974556;28;20449;-61
2023/07/20 12:48:29;;;;;;;7.20;6.90;;;24.60;2.70;;;;;;4974188;28;20546;-61